Time;durP1;ratioP1;P1;durP2;ratioP2;P2;SDS_P1;SDS_P2;PMS_P1;PMS_P2;Temp;Humidity;BMP_temperature;BMP_pressure;BME280_temperature;BME280_humidity;BME280_pressure;Samples;Min_cycle;Max_cycle;Signal;HPM_P1;HPM_P2
2022/01/03 00:00:15;;;;;;;11.40;5.70;;;6.80;99.90;;;;;;2019684;70;21100;-74
2022/01/03 00:02:41;;;;;;;10.72;5.30;;;6.80;99.90;;;;;;2017818;70;21108;-76
2022/01/03 00:05:07;;;;;;;8.60;4.95;;;7.00;99.90;;;;;;2012951;70;21198;-74
2022/01/03 00:07:33;;;;;;;14.65;3.98;;;7.20;99.90;;;;;;2015796;70;21049;-74
2022/01/03 00:10:00;;;;;;;10.23;3.08;;;7.50;99.90;;;;;;2022748;70;21191;-75
2022/01/03 00:12:26;;;;;;;4.60;2.67;;;7.80;99.90;;;;;;2013072;70;21055;-74
2022/01/03 00:14:52;;;;;;;9.08;2.50;;;8.10;99.90;;;;;;2026546;71;21093;-74
2022/01/03 00:17:18;;;;;;;6.22;2.25;;;8.40;99.90;;;;;;2015685;71;21057;-75
2022/01/03 00:19:44;;;;;;;6.00;1.87;;;9.70;99.90;;;;;;2016911;71;21248;-74
2022/01/03 00:22:10;;;;;;;6.22;1.60;;;10.10;99.90;;;;;;2019047;70;21059;-75
2022/01/03 00:24:36;;;;;;;5.40;1.70;;;10.20;99.90;;;;;;2013727;71;21106;-76
2022/01/03 00:27:02;;;;;;;4.33;1.37;;;11.00;99.90;;;;;;2019273;70;21122;-75
2022/01/03 00:29:29;;;;;;;2.92;1.30;;;11.00;99.90;;;;;;2012721;70;21024;-75
2022/01/03 00:31:55;;;;;;;10.38;1.50;;;10.90;99.90;;;;;;2016647;70;21132;-76
2022/01/03 00:34:21;;;;;;;1.65;1.30;;;11.00;99.90;;;;;;2017835;69;21261;-74
2022/01/03 00:36:47;;;;;;;2.58;1.27;;;11.30;99.90;;;;;;2011789;71;21061;-75
2022/01/03 00:39:14;;;;;;;5.20;1.55;;;11.30;99.90;;;;;;2014734;69;21135;-74
2022/01/03 00:41:40;;;;;;;3.90;1.30;;;11.50;99.90;;;;;;1982788;71;21028;-74
2022/01/03 00:44:06;;;;;;;3.00;1.30;;;11.70;99.90;;;;;;2017646;70;21062;-74
2022/01/03 00:46:34;;;;;;;3.37;1.50;;;11.80;99.90;;;;;;2022196;70;21177;-75
2022/01/03 00:49:00;;;;;;;4.72;2.20;;;11.80;99.90;;;;;;2014866;69;21087;-75
2022/01/03 00:51:26;;;;;;;3.15;1.37;;;11.80;99.90;;;;;;2021261;71;21016;-74
2022/01/03 00:53:52;;;;;;;4.65;1.35;;;12.00;99.90;;;;;;2027879;71;21134;-74
2022/01/03 00:56:18;;;;;;;2.40;1.02;;;12.20;99.90;;;;;;2026299;69;21059;-74
2022/01/03 00:58:44;;;;;;;3.40;1.30;;;12.10;99.90;;;;;;2014071;70;21136;-74
2022/01/03 01:01:10;;;;;;;3.50;1.30;;;12.10;99.90;;;;;;2021184;69;21080;-75
2022/01/03 01:03:37;;;;;;;11.48;1.57;;;12.20;99.90;;;;;;2016032;70;21062;-73
2022/01/03 01:06:03;;;;;;;4.70;1.15;;;12.40;99.90;;;;;;2022682;70;21180;-74
2022/01/03 01:08:30;;;;;;;3.15;1.27;;;12.30;99.90;;;;;;2018139;70;21067;-73
2022/01/03 01:10:56;;;;;;;4.03;1.35;;;12.10;99.90;;;;;;2023163;71;21124;-73
2022/01/03 01:13:22;;;;;;;5.20;1.67;;;12.20;99.90;;;;;;2022575;71;21062;-74
2022/01/03 01:15:48;;;;;;;6.87;1.20;;;12.10;99.90;;;;;;2021292;70;21059;-74
2022/01/03 01:18:14;;;;;;;7.00;1.52;;;12.10;99.90;;;;;;2028283;69;21058;-76
2022/01/03 01:20:40;;;;;;;5.50;1.30;;;12.10;99.90;;;;;;2023641;70;21063;-74
2022/01/03 01:23:06;;;;;;;4.47;1.20;;;12.20;99.90;;;;;;2018319;71;21036;-75
2022/01/03 01:28:03;;;;;;;;;;;12.10;99.90;;;;;;1889905;74;21104;-74
2022/01/03 01:30:29;;;;;;;4.95;1.30;;;12.10;99.90;;;;;;1907973;75;20119;-76
2022/01/03 01:32:55;;;;;;;2.50;0.90;;;12.10;99.90;;;;;;1903575;75;21049;-75
2022/01/03 01:35:21;;;;;;;3.83;0.88;;;12.20;99.90;;;;;;1896017;75;21276;-76
2022/01/03 01:37:47;;;;;;;2.90;1.10;;;12.20;99.90;;;;;;1898041;75;21150;-74
2022/01/03 01:40:13;;;;;;;7.17;1.65;;;12.10;99.90;;;;;;1907197;75;21052;-76
2022/01/03 01:42:40;;;;;;;4.58;1.50;;;12.00;99.90;;;;;;1900655;75;21080;-75
2022/01/03 01:45:08;;;;;;;3.60;1.20;;;12.00;99.90;;;;;;1900481;75;21153;-75
2022/01/03 01:47:33;;;;;;;5.40;1.27;;;12.10;99.90;;;;;;1896657;75;21121;-75
2022/01/03 01:50:00;;;;;;;2.80;1.25;;;12.10;99.90;;;;;;1909530;74;21045;-75
2022/01/03 01:52:26;;;;;;;3.10;1.40;;;12.00;99.90;;;;;;1914136;74;21149;-75
2022/01/03 01:54:52;;;;;;;5.55;1.30;;;12.00;99.90;;;;;;1891966;75;21133;-75
2022/01/03 01:57:18;;;;;;;6.90;1.20;;;12.10;99.90;;;;;;1891930;76;21064;-75
2022/01/03 01:59:44;;;;;;;7.67;1.50;;;12.10;99.90;;;;;;1903363;74;21087;-75
2022/01/03 02:02:10;;;;;;;10.08;1.37;;;12.10;99.90;;;;;;1901056;75;21080;-75
2022/01/03 02:04:36;;;;;;;4.42;1.42;;;12.10;99.90;;;;;;1897216;75;21235;-75
2022/01/03 02:07:03;;;;;;;5.33;1.47;;;12.10;99.90;;;;;;1901629;73;21084;-75
2022/01/03 02:09:29;;;;;;;3.80;1.05;;;12.00;99.90;;;;;;1906385;73;21460;-74
2022/01/03 02:11:56;;;;;;;2.92;1.10;;;12.10;99.90;;;;;;1911971;73;21053;-75
2022/01/03 02:14:22;;;;;;;2.90;1.17;;;12.10;99.90;;;;;;1915215;75;21106;-75
2022/01/03 02:16:48;;;;;;;9.43;1.15;;;12.00;99.90;;;;;;1913211;74;21157;-75
2022/01/03 02:19:14;;;;;;;1.72;1.00;;;12.00;99.90;;;;;;1893394;75;21162;-75
2022/01/03 02:21:40;;;;;;;4.92;1.47;;;12.10;99.90;;;;;;1899273;73;21049;-75
2022/01/03 02:24:06;;;;;;;4.08;1.45;;;12.00;99.90;;;;;;1898183;73;21149;-75
2022/01/03 02:26:32;;;;;;;4.37;1.40;;;11.90;99.90;;;;;;1916287;74;21087;-75
2022/01/03 02:28:58;;;;;;;4.17;1.67;;;11.90;99.90;;;;;;1904962;75;21080;-75
2022/01/03 02:31:25;;;;;;;5.70;1.60;;;11.90;99.90;;;;;;1899963;74;21084;-74
2022/01/03 02:33:51;;;;;;;5.83;1.60;;;11.80;99.90;;;;;;1897508;74;21497;-75
2022/01/03 02:36:17;;;;;;;4.33;1.27;;;11.80;99.90;;;;;;1898046;74;21564;-75
2022/01/03 02:38:43;;;;;;;4.45;1.47;;;11.90;99.90;;;;;;1916254;75;21495;-75
2022/01/03 02:41:09;;;;;;;4.75;1.47;;;11.90;99.90;;;;;;1909846;73;21613;-75
2022/01/03 02:43:35;;;;;;;5.03;1.55;;;12.00;99.90;;;;;;1908443;74;21512;-75
2022/01/03 02:46:01;;;;;;;5.10;1.35;;;11.90;99.90;;;;;;1901497;75;21093;-75
2022/01/03 02:48:27;;;;;;;5.40;1.70;;;11.90;99.90;;;;;;1910727;74;21080;-74
2022/01/03 02:50:54;;;;;;;3.60;1.25;;;11.80;99.90;;;;;;1908050;74;21086;-75
2022/01/03 02:53:20;;;;;;;3.30;1.20;;;11.70;99.90;;;;;;1914328;74;21154;-75
2022/01/03 02:55:46;;;;;;;4.35;1.35;;;11.80;99.90;;;;;;1905487;75;21092;-75
2022/01/03 02:58:12;;;;;;;1.92;0.88;;;11.70;99.90;;;;;;1907831;74;21190;-73
2022/01/03 03:00:45;;;;;;;7.03;1.35;;;11.70;99.90;;;;;;1903265;75;21080;-74
2022/01/03 03:03:07;;;;;;;2.00;1.20;;;11.80;99.90;;;;;;1902060;75;21072;-76
2022/01/03 03:05:33;;;;;;;2.22;1.30;;;11.70;99.90;;;;;;1899396;75;21254;-75
2022/01/03 03:08:00;;;;;;;2.80;1.47;;;11.80;99.90;;;;;;1911251;75;21072;-76
2022/01/03 03:10:26;;;;;;;2.40;1.25;;;11.80;99.90;;;;;;1902975;75;21244;-76
2022/01/03 03:12:52;;;;;;;4.53;1.32;;;11.70;99.90;;;;;;1900819;73;21077;-76
2022/01/03 03:15:19;;;;;;;5.60;1.65;;;11.70;99.90;;;;;;1900441;75;21096;-75
2022/01/03 03:17:45;;;;;;;1.72;1.20;;;11.60;99.90;;;;;;1893700;75;21049;-76
2022/01/03 03:20:11;;;;;;;3.37;1.30;;;11.40;99.90;;;;;;1904490;73;21150;-75
2022/01/03 03:22:37;;;;;;;4.10;1.22;;;11.50;99.90;;;;;;1897813;75;21573;-76
2022/01/03 03:25:03;;;;;;;2.72;1.15;;;11.50;99.90;;;;;;1912205;73;21597;-75
2022/01/03 03:27:29;;;;;;;3.40;1.12;;;11.50;99.90;;;;;;1911148;74;21543;-76
2022/01/03 03:29:56;;;;;;;2.65;1.15;;;11.40;99.90;;;;;;1899118;75;21080;-75
2022/01/03 03:32:22;;;;;;;2.05;0.90;;;11.40;99.90;;;;;;1899065;75;21119;-76
2022/01/03 03:34:48;;;;;;;4.20;1.10;;;11.40;99.90;;;;;;1903468;75;21138;-75
2022/01/03 03:37:14;;;;;;;2.83;1.37;;;11.40;99.90;;;;;;1901317;75;21084;-75
2022/01/03 03:39:40;;;;;;;2.90;1.10;;;11.30;99.90;;;;;;1898832;75;21076;-75
2022/01/03 03:42:06;;;;;;;3.98;1.22;;;11.30;99.90;;;;;;1901096;75;21076;-75
2022/01/03 03:44:32;;;;;;;3.90;1.25;;;11.30;99.90;;;;;;1901086;75;21150;-76
2022/01/03 03:46:58;;;;;;;5.00;1.20;;;11.30;99.90;;;;;;1903271;75;21068;-75
2022/01/03 03:49:24;;;;;;;8.95;1.70;;;11.30;99.90;;;;;;1903268;75;21076;-75
2022/01/03 03:51:51;;;;;;;3.92;1.12;;;11.30;99.90;;;;;;1894643;75;21076;-75
2022/01/03 03:54:17;;;;;;;4.65;1.10;;;11.30;99.90;;;;;;1903386;75;21073;-76
2022/01/03 03:56:43;;;;;;;3.08;1.10;;;11.30;99.90;;;;;;1900822;75;21080;-75
2022/01/03 03:59:09;;;;;;;7.92;1.70;;;11.30;99.90;;;;;;1891843;76;21143;-76
2022/01/03 04:01:35;;;;;;;5.05;1.40;;;11.20;99.90;;;;;;1902615;75;21133;-75
2022/01/03 04:04:01;;;;;;;4.47;1.37;;;11.30;99.90;;;;;;1903348;75;21064;-75
2022/01/03 04:06:27;;;;;;;1.90;1.22;;;11.30;99.90;;;;;;1901195;75;21161;-75
2022/01/03 04:08:53;;;;;;;5.42;1.32;;;11.20;99.90;;;;;;1906602;75;21114;-76
2022/01/03 04:11:20;;;;;;;4.58;1.30;;;11.10;99.90;;;;;;1903512;75;21080;-76
2022/01/03 04:13:46;;;;;;;3.58;1.30;;;11.00;99.90;;;;;;1903585;75;21076;-75
2022/01/03 04:16:13;;;;;;;22.67;1.40;;;11.00;99.90;;;;;;1901308;75;21123;-75
2022/01/03 04:18:39;;;;;;;2.35;1.15;;;11.20;99.90;;;;;;1902564;75;21099;-74
2022/01/03 04:21:06;;;;;;;3.58;1.10;;;11.10;99.90;;;;;;1914708;75;21452;-75
2022/01/03 04:23:32;;;;;;;4.85;1.45;;;11.10;99.90;;;;;;1903423;75;21488;-75
2022/01/03 04:25:58;;;;;;;4.05;1.20;;;11.20;99.90;;;;;;1903097;75;21516;-75
2022/01/03 04:28:24;;;;;;;6.65;1.22;;;11.20;99.90;;;;;;1911280;75;21084;-75
2022/01/03 04:30:53;;;;;;;5.42;1.52;;;11.20;99.90;;;;;;1901104;75;21080;-75
2022/01/03 04:33:20;;;;;;;3.20;1.30;;;11.20;99.90;;;;;;1898982;75;21041;-75
2022/01/03 04:35:46;;;;;;;2.75;1.07;;;11.20;99.90;;;;;;1896951;75;21080;-75
2022/01/03 04:38:12;;;;;;;6.30;1.55;;;11.10;99.90;;;;;;1903307;75;21193;-75
2022/01/03 04:40:38;;;;;;;4.75;1.42;;;11.20;99.90;;;;;;1895050;75;21162;-75
2022/01/03 04:43:04;;;;;;;4.53;1.42;;;11.20;99.90;;;;;;1901572;75;21084;-75
2022/01/03 04:45:30;;;;;;;8.90;1.67;;;11.30;99.90;;;;;;1903502;75;21178;-75
2022/01/03 04:47:56;;;;;;;4.42;1.50;;;11.30;99.90;;;;;;1908762;74;21157;-75
2022/01/03 04:50:22;;;;;;;8.03;2.40;;;11.40;99.90;;;;;;1896758;75;21053;-75
2022/01/03 04:52:49;;;;;;;6.53;1.50;;;11.40;99.90;;;;;;1905090;75;21216;-75
2022/01/03 04:55:15;;;;;;;9.18;1.30;;;11.40;99.90;;;;;;1900327;75;21080;-75
2022/01/03 04:57:41;;;;;;;6.72;1.57;;;11.40;99.90;;;;;;1906600;75;21153;-75
2022/01/03 05:00:07;;;;;;;5.37;1.50;;;11.40;99.90;;;;;;1902738;75;21053;-75
2022/01/03 05:02:33;;;;;;;7.15;1.25;;;11.30;99.90;;;;;;1907187;75;21080;-75
2022/01/03 05:04:59;;;;;;;3.15;1.30;;;11.30;99.90;;;;;;1891907;75;21082;-75
2022/01/03 05:07:25;;;;;;;5.45;1.20;;;11.30;99.90;;;;;;1910558;74;21154;-75
2022/01/03 05:09:51;;;;;;;6.12;1.27;;;11.30;99.90;;;;;;1902714;75;21120;-75
2022/01/03 05:12:18;;;;;;;5.80;1.65;;;11.30;99.90;;;;;;1896931;75;21165;-75
2022/01/03 05:14:44;;;;;;;5.65;1.62;;;11.20;99.90;;;;;;1906972;75;21083;-75
2022/01/03 05:17:10;;;;;;;5.55;1.57;;;11.20;99.90;;;;;;1907747;75;21072;-75
2022/01/03 05:19:36;;;;;;;7.40;1.37;;;11.20;99.90;;;;;;1903427;75;21143;-76
2022/01/03 05:22:02;;;;;;;8.45;1.60;;;11.10;99.90;;;;;;1903620;75;21193;-76
2022/01/03 05:24:28;;;;;;;5.00;1.50;;;11.00;99.90;;;;;;1903569;75;21138;-75
2022/01/03 05:26:57;;;;;;;4.15;1.25;;;11.00;99.90;;;;;;1899220;75;21076;-76
2022/01/03 05:29:22;;;;;;;4.08;1.12;;;11.00;99.90;;;;;;1901633;74;21186;-75
2022/01/03 05:31:49;;;;;;;4.95;1.12;;;10.80;99.90;;;;;;1903581;75;21162;-76
2022/01/03 05:34:15;;;;;;;5.75;1.80;;;10.50;99.90;;;;;;1903099;75;21076;-76
2022/01/03 05:36:41;;;;;;;4.25;1.30;;;10.30;99.90;;;;;;1906859;75;21146;-77
2022/01/03 05:39:07;;;;;;;5.35;1.20;;;10.10;99.90;;;;;;1905168;75;21148;-76
2022/01/03 05:41:33;;;;;;;12.55;1.60;;;10.00;99.90;;;;;;1894984;75;21154;-77
2022/01/03 05:43:59;;;;;;;5.53;1.40;;;9.70;99.90;;;;;;1904230;75;21073;-77
2022/01/03 05:46:25;;;;;;;4.17;1.30;;;9.70;99.90;;;;;;1903670;75;21072;-77
2022/01/03 05:48:51;;;;;;;6.22;1.60;;;9.60;99.90;;;;;;1903615;75;21076;-77
2022/01/03 05:51:17;;;;;;;8.95;1.62;;;9.70;99.90;;;;;;1897318;75;21088;-78
2022/01/03 05:53:44;;;;;;;6.97;1.12;;;9.60;99.90;;;;;;1903659;75;21076;-77
2022/01/03 05:56:10;;;;;;;3.27;1.40;;;9.50;99.90;;;;;;1899272;75;21236;-78
2022/01/03 05:58:36;;;;;;;8.58;1.55;;;9.50;99.90;;;;;;1903397;75;21158;-78
2022/01/03 06:01:02;;;;;;;3.95;1.00;;;9.30;99.90;;;;;;1903587;75;21143;-77
2022/01/03 06:03:34;;;;;;;6.05;1.50;;;9.30;99.90;;;;;;1901229;75;21080;-76
2022/01/03 06:08:24;;;;;;;6.17;1.80;;;9.40;99.90;;;;;;1902029;75;21211;-76
2022/01/03 06:10:50;;;;;;;7.37;1.92;;;9.40;99.90;;;;;;1903591;75;21103;-76
2022/01/03 06:13:16;;;;;;;6.80;1.62;;;9.40;99.90;;;;;;1897174;75;21088;-76
2022/01/03 06:15:43;;;;;;;3.42;1.40;;;9.30;99.90;;;;;;1892291;75;21520;-77
2022/01/03 06:18:10;;;;;;;7.25;1.62;;;9.40;99.90;;;;;;1902056;75;21491;-76
2022/01/03 06:20:36;;;;;;;5.08;1.65;;;9.40;99.90;;;;;;1900565;75;21096;-75
2022/01/03 06:23:02;;;;;;;13.35;1.60;;;9.20;99.90;;;;;;1901524;75;21127;-77
2022/01/03 06:25:28;;;;;;;8.55;1.70;;;9.30;99.90;;;;;;1903621;75;21033;-76
2022/01/03 06:27:54;;;;;;;5.97;1.35;;;9.20;99.90;;;;;;1900407;75;21158;-76
2022/01/03 06:30:20;;;;;;;7.37;1.65;;;9.40;99.90;;;;;;1901837;75;21084;-77
2022/01/03 06:32:47;;;;;;;6.25;1.60;;;9.30;99.90;;;;;;1906590;75;21092;-76
2022/01/03 06:35:13;;;;;;;6.87;1.95;;;9.40;99.90;;;;;;1901656;75;21493;-77
2022/01/03 06:37:39;;;;;;;8.93;2.15;;;9.50;99.90;;;;;;1903502;75;21461;-76
2022/01/03 06:40:06;;;;;;;8.53;1.90;;;9.50;99.90;;;;;;1903499;75;21476;-76
2022/01/03 06:42:32;;;;;;;4.25;1.45;;;9.60;99.90;;;;;;1903531;75;21127;-75
2022/01/03 06:44:59;;;;;;;10.23;1.65;;;9.70;99.90;;;;;;1903477;75;21139;-78
2022/01/03 06:47:25;;;;;;;3.80;1.22;;;9.60;99.90;;;;;;1899716;75;21164;-80
2022/01/03 06:49:51;;;;;;;7.40;1.90;;;9.60;99.90;;;;;;1916476;75;21106;-80
2022/01/03 06:52:17;;;;;;;5.03;1.92;;;9.60;99.90;;;;;;1904053;75;21158;-81
2022/01/03 06:54:43;;;;;;;7.25;1.70;;;9.60;99.90;;;;;;1901500;75;21570;-85
2022/01/03 06:57:11;;;;;;;6.83;1.45;;;9.60;99.90;;;;;;1903520;75;21440;-81
2022/01/03 06:59:37;;;;;;;7.53;1.77;;;9.70;99.90;;;;;;1900665;75;21161;-82
2022/01/03 07:02:03;;;;;;;5.60;1.37;;;9.70;99.90;;;;;;1895975;75;21438;-77
2022/01/03 07:04:29;;;;;;;4.75;1.45;;;9.70;99.90;;;;;;1899030;75;21149;-77
2022/01/03 07:06:55;;;;;;;11.60;1.75;;;9.70;99.90;;;;;;1901754;75;21084;-77
2022/01/03 07:09:21;;;;;;;6.10;1.67;;;9.60;99.90;;;;;;1903591;75;21076;-77
2022/01/03 07:11:47;;;;;;;5.83;1.82;;;9.60;99.90;;;;;;1900094;75;21602;-75
2022/01/03 07:19:34;;;;;;;7.00;1.80;;;9.60;99.90;;;;;;1903825;75;21183;-74
2022/01/03 07:22:03;;;;;;;6.30;1.52;;;9.60;99.90;;;;;;1895192;75;21495;-75
2022/01/03 07:24:28;;;;;;;5.17;1.50;;;9.40;99.90;;;;;;1900473;75;21121;-76
2022/01/03 07:26:54;;;;;;;9.60;1.67;;;9.50;99.90;;;;;;1908926;75;21134;-77
2022/01/03 07:29:21;;;;;;;7.12;1.37;;;9.30;99.90;;;;;;1903379;75;21057;-77
2022/01/03 07:31:47;;;;;;;7.22;1.27;;;9.30;99.90;;;;;;1903247;75;21084;-77
2022/01/03 07:34:13;;;;;;;6.83;1.55;;;9.20;99.90;;;;;;1900439;75;21119;-78
2022/01/03 07:36:39;;;;;;;9.63;1.90;;;9.20;99.90;;;;;;1891760;75;21170;-81
2022/01/03 07:39:05;;;;;;;11.20;1.70;;;9.20;99.90;;;;;;1896805;75;21493;-79
2022/01/03 07:41:31;;;;;;;7.50;1.55;;;9.20;99.90;;;;;;1894513;75;21502;-79
2022/01/03 07:43:58;;;;;;;6.95;1.50;;;9.20;99.90;;;;;;1892162;75;21080;-78
2022/01/03 07:46:24;;;;;;;7.03;1.70;;;9.20;99.90;;;;;;1909425;75;21052;-79
2022/01/03 07:48:58;;;;;;;11.53;2.35;;;9.20;99.90;;;;;;1902760;74;21578;-83
2022/01/03 07:51:22;;;;;;;9.58;2.10;;;9.20;99.90;;;;;;1897708;73;21172;-78
2022/01/03 07:53:49;;;;;;;6.92;1.72;;;9.20;99.90;;;;;;1901264;75;21582;-79
2022/01/03 07:56:15;;;;;;;4.58;1.62;;;9.20;99.90;;;;;;1900612;75;21566;-77
2022/01/03 07:58:41;;;;;;;8.40;2.47;;;9.20;99.90;;;;;;1899417;75;21557;-79
2022/01/03 08:01:07;;;;;;;9.30;2.42;;;9.20;99.90;;;;;;1902447;75;21503;-80
2022/01/03 08:03:33;;;;;;;3.87;1.80;;;9.20;99.90;;;;;;1902574;73;21084;-79
2022/01/03 08:05:59;;;;;;;6.60;2.02;;;9.20;99.90;;;;;;1903349;75;21041;-78
2022/01/03 08:08:25;;;;;;;6.97;2.27;;;9.10;99.90;;;;;;1901639;73;21076;-79
2022/01/03 08:10:51;;;;;;;12.90;1.90;;;9.10;99.90;;;;;;1901246;75;21131;-77
2022/01/03 08:13:18;;;;;;;7.85;2.17;;;9.20;99.90;;;;;;1901374;75;21218;-75
2022/01/03 08:15:44;;;;;;;10.65;1.85;;;9.10;99.90;;;;;;1893773;75;21084;-81
2022/01/03 08:18:10;;;;;;;9.45;2.25;;;9.20;99.90;;;;;;1904789;75;21083;-81
2022/01/03 08:20:36;;;;;;;8.40;1.72;;;9.20;99.90;;;;;;1897181;75;21048;-81
2022/01/03 08:23:02;;;;;;;4.62;1.50;;;9.30;99.90;;;;;;1903691;75;21108;-82
2022/01/03 08:25:33;;;;;;;9.25;1.70;;;9.30;99.90;;;;;;1903979;75;21084;-82
2022/01/03 08:27:57;;;;;;;6.72;1.95;;;9.30;99.90;;;;;;1903150;75;21109;-80
2022/01/03 08:30:24;;;;;;;5.22;1.90;;;9.40;99.90;;;;;;1899363;75;21181;-81
2022/01/03 08:32:50;;;;;;;17.20;2.08;;;9.40;99.90;;;;;;1906063;73;21076;-79
2022/01/03 08:35:16;;;;;;;17.57;2.45;;;9.40;99.90;;;;;;1903564;75;21037;-79
2022/01/03 08:37:42;;;;;;;8.60;2.12;;;9.40;99.90;;;;;;1897918;75;21084;-79
2022/01/03 08:40:08;;;;;;;9.08;2.00;;;9.40;99.90;;;;;;1896134;75;21166;-80
2022/01/03 08:42:34;;;;;;;6.60;2.47;;;9.50;99.90;;;;;;1903395;75;21080;-79
2022/01/03 08:45:01;;;;;;;5.72;2.72;;;9.50;99.90;;;;;;1898333;75;21488;-80
2022/01/03 08:47:27;;;;;;;16.15;5.95;;;9.50;99.90;;;;;;1897632;75;21899;-81
2022/01/03 08:49:53;;;;;;;12.15;3.17;;;9.60;99.90;;;;;;1907861;75;21101;-79
2022/01/03 08:52:19;;;;;;;7.53;2.10;;;9.70;99.90;;;;;;1897606;75;21081;-79
2022/01/03 08:54:45;;;;;;;7.53;2.65;;;9.80;99.90;;;;;;1907940;75;21085;-79
2022/01/03 08:57:11;;;;;;;7.30;2.02;;;10.10;99.90;;;;;;1902849;73;21084;-80
2022/01/03 08:59:40;;;;;;;4.95;1.67;;;10.30;99.90;;;;;;1898709;75;21150;-86
2022/01/03 09:02:06;;;;;;;9.53;1.70;;;10.60;99.90;;;;;;1916202;75;21492;-80
2022/01/03 09:04:32;;;;;;;7.92;1.77;;;10.80;99.90;;;;;;1911955;74;21543;-80
2022/01/03 09:06:59;;;;;;;7.50;1.95;;;10.80;99.90;;;;;;1907362;75;21487;-81
2022/01/03 09:09:27;;;;;;;5.30;1.40;;;11.00;99.90;;;;;;1910441;75;21080;-81
2022/01/03 09:11:53;;;;;;;4.62;1.52;;;11.00;99.90;;;;;;1912898;75;21238;-80
2022/01/03 09:14:19;;;;;;;6.72;1.37;;;11.10;99.90;;;;;;1908859;73;21169;-83
2022/01/03 09:16:45;;;;;;;5.62;1.65;;;11.20;99.90;;;;;;1909818;74;21142;-76
2022/01/03 09:19:12;;;;;;;7.45;1.72;;;11.30;99.90;;;;;;1897093;75;21037;-80
2022/01/03 09:21:38;;;;;;;6.42;1.80;;;11.40;99.90;;;;;;1905596;75;21065;-79
2022/01/03 09:24:22;;;;;;;10.72;1.90;;;11.40;99.90;;;;;;1899914;75;21154;-82
2022/01/03 09:29:28;;;;;;;7.62;2.30;;;11.60;99.90;;;;;;1901498;75;21080;-80
2022/01/03 09:31:54;;;;;;;5.80;2.27;;;11.60;99.90;;;;;;1893201;76;21064;-83
2022/01/03 09:34:20;;;;;;;6.00;2.15;;;11.60;99.90;;;;;;1901829;75;21080;-79
2022/01/03 09:36:46;;;;;;;6.65;1.65;;;11.70;99.90;;;;;;1908191;75;21045;-85
2022/01/03 09:39:13;;;;;;;8.18;1.57;;;11.60;99.90;;;;;;1897205;75;21119;-84
2022/01/03 09:41:39;;;;;;;13.32;1.90;;;11.60;99.90;;;;;;1901291;75;21151;-84
2022/01/03 09:44:05;;;;;;;4.62;1.27;;;11.70;99.90;;;;;;1894586;75;21136;-79
2022/01/03 09:46:31;;;;;;;5.05;1.35;;;11.70;99.90;;;;;;1904019;75;21215;-79
2022/01/03 09:48:57;;;;;;;8.43;1.55;;;11.80;99.90;;;;;;1899807;75;21182;-80
2022/01/03 09:51:23;;;;;;;7.67;1.90;;;11.70;99.90;;;;;;1899380;75;21209;-82
2022/01/03 09:53:49;;;;;;;9.50;1.85;;;11.70;99.90;;;;;;1899693;75;21133;-81
2022/01/03 09:56:16;;;;;;;5.25;1.37;;;11.70;99.90;;;;;;1898652;75;21504;-81
2022/01/03 09:58:42;;;;;;;4.17;1.32;;;11.60;99.90;;;;;;1899297;74;21476;-77
2022/01/03 10:01:08;;;;;;;4.45;1.45;;;11.60;99.90;;;;;;1897819;75;21444;-81
2022/01/03 10:03:34;;;;;;;6.67;1.65;;;11.70;99.90;;;;;;1899041;75;21041;-80
2022/01/03 10:06:00;;;;;;;4.90;1.25;;;11.80;99.90;;;;;;1892210;76;21151;-83
2022/01/03 10:08:26;;;;;;;10.38;1.50;;;11.80;99.90;;;;;;1900678;75;21081;-85
2022/01/03 10:10:52;;;;;;;9.70;2.20;;;11.80;99.90;;;;;;1902600;75;21165;-82
2022/01/03 10:13:19;;;;;;;5.08;2.42;;;11.80;99.90;;;;;;1903223;75;21239;-83
2022/01/03 10:15:45;;;;;;;9.90;4.50;;;11.80;99.90;;;;;;1895429;75;21480;-79
2022/01/03 10:18:11;;;;;;;10.50;4.62;;;11.80;99.90;;;;;;1901948;75;21461;-80
2022/01/03 10:20:37;;;;;;;13.38;4.00;;;11.90;99.90;;;;;;1904028;75;21516;-78
2022/01/03 10:23:03;;;;;;;10.70;4.10;;;11.90;99.90;;;;;;1902157;75;21441;-81
2022/01/03 10:25:29;;;;;;;20.02;4.92;;;11.90;99.90;;;;;;1903907;75;21538;-80
2022/01/03 10:27:55;;;;;;;11.55;5.28;;;11.90;99.90;;;;;;1904054;75;21142;-79
2022/01/03 10:30:22;;;;;;;14.55;4.20;;;11.90;99.90;;;;;;1899562;75;21083;-78
2022/01/03 10:32:48;;;;;;;12.65;4.00;;;12.00;99.90;;;;;;1903967;75;21076;-77
2022/01/03 10:35:14;;;;;;;10.72;4.65;;;12.00;99.90;;;;;;1903735;75;21197;-74
2022/01/03 10:37:40;;;;;;;17.52;4.58;;;12.10;99.90;;;;;;1903000;75;21076;-76
2022/01/03 10:40:06;;;;;;;7.47;2.95;;;12.00;99.90;;;;;;1900629;75;21070;-74
2022/01/03 10:42:32;;;;;;;5.62;2.17;;;12.00;99.90;;;;;;1900431;75;21268;-76
2022/01/03 10:44:58;;;;;;;6.20;2.37;;;12.00;99.90;;;;;;1892398;76;21110;-75
2022/01/03 10:47:25;;;;;;;10.65;2.25;;;12.00;99.90;;;;;;1902116;75;21077;-75
2022/01/03 10:49:51;;;;;;;7.47;2.27;;;12.00;99.90;;;;;;1903900;75;21189;-74
2022/01/03 10:52:17;;;;;;;7.78;2.27;;;12.00;99.90;;;;;;1892493;75;21139;-74
2022/01/03 10:54:43;;;;;;;4.05;1.90;;;12.00;99.90;;;;;;1892524;76;21186;-74
2022/01/03 10:57:09;;;;;;;7.67;1.80;;;12.00;99.90;;;;;;1913300;74;21092;-73
2022/01/03 10:59:36;;;;;;;8.13;2.40;;;12.00;99.90;;;;;;1904752;75;21153;-75
2022/01/03 11:02:02;;;;;;;7.67;2.45;;;12.00;99.90;;;;;;1898503;75;21084;-76
2022/01/03 11:04:31;;;;;;;8.08;2.77;;;12.10;99.90;;;;;;1899035;75;21050;-75
2022/01/03 11:07:01;;;;;;;9.15;2.02;;;12.00;99.90;;;;;;1902268;75;21178;-75
2022/01/03 11:12:08;;;;;;;5.55;1.55;;;12.10;99.90;;;;;;1901575;75;21159;-75
2022/01/03 11:14:38;;;;;;;4.28;1.80;;;12.10;99.90;;;;;;1904964;75;21170;-75
2022/01/03 11:17:02;;;;;;;6.05;1.40;;;12.10;99.90;;;;;;1909488;75;21105;-77
2022/01/03 11:19:28;;;;;;;4.80;1.57;;;12.10;99.90;;;;;;1897180;75;21053;-76
2022/01/03 11:21:54;;;;;;;4.35;1.87;;;12.10;99.90;;;;;;1897083;75;21085;-76
2022/01/03 11:24:20;;;;;;;9.05;1.90;;;12.10;99.90;;;;;;1899863;75;21147;-77
2022/01/03 11:26:47;;;;;;;5.50;1.80;;;12.20;99.90;;;;;;1873632;75;21074;-77
2022/01/03 11:29:14;;;;;;;12.75;2.02;;;12.20;99.90;;;;;;1903119;75;21489;-78
2022/01/03 11:31:42;;;;;;;11.18;2.27;;;12.30;99.90;;;;;;1904855;75;21484;-77
2022/01/03 11:34:07;;;;;;;5.47;1.57;;;12.30;99.90;;;;;;1901109;75;21179;-76
2022/01/03 11:36:34;;;;;;;11.12;4.15;;;12.30;99.90;;;;;;1903493;75;21186;-75
2022/01/03 11:39:00;;;;;;;6.17;1.92;;;12.30;99.90;;;;;;1900278;75;21076;-76
2022/01/03 11:41:26;;;;;;;4.40;1.50;;;12.30;99.90;;;;;;1893732;75;21139;-74
2022/01/03 11:43:52;;;;;;;9.65;2.55;;;12.20;99.90;;;;;;1903370;75;21142;-74
2022/01/03 11:46:18;;;;;;;9.55;1.80;;;12.30;99.90;;;;;;1898972;75;21158;-81
2022/01/03 11:48:45;;;;;;;5.83;1.60;;;12.40;99.90;;;;;;1900247;75;21127;-75
2022/01/03 11:51:11;;;;;;;8.88;1.35;;;12.40;99.90;;;;;;1912188;75;21487;-75
2022/01/03 11:53:39;;;;;;;8.45;1.40;;;12.40;99.90;;;;;;1904439;74;21590;-76
2022/01/03 11:56:05;;;;;;;9.15;1.80;;;12.40;99.90;;;;;;1900108;75;21125;-76
2022/01/03 11:58:40;;;;;;;6.05;1.62;;;12.40;99.90;;;;;;1904897;75;21045;-75
2022/01/03 12:03:45;;;;;;;6.42;1.40;;;12.50;99.90;;;;;;1903517;75;21104;-75
2022/01/03 12:06:11;;;;;;;4.33;1.50;;;12.50;99.90;;;;;;1903537;75;21497;-76
2022/01/03 12:08:37;;;;;;;6.22;2.42;;;12.50;99.90;;;;;;1903463;75;21501;-76
2022/01/03 12:11:03;;;;;;;3.83;1.00;;;12.50;99.90;;;;;;1898266;73;21468;-76
2022/01/03 12:13:29;;;;;;;5.22;1.65;;;12.40;99.90;;;;;;1898280;75;21483;-76
2022/01/03 12:15:55;;;;;;;7.95;1.60;;;12.50;99.90;;;;;;1901804;75;21528;-75
2022/01/03 12:18:22;;;;;;;4.58;1.57;;;12.50;99.90;;;;;;1903445;75;21137;-76
2022/01/03 12:20:48;;;;;;;2.95;1.20;;;12.50;99.90;;;;;;1902114;75;21084;-75
2022/01/03 12:23:15;;;;;;;3.60;1.57;;;12.60;99.90;;;;;;1906048;75;21138;-75
2022/01/03 12:25:46;;;;;;;10.58;1.80;;;12.70;99.90;;;;;;1903433;75;21107;-76
2022/01/03 12:28:10;;;;;;;6.03;1.40;;;12.60;99.90;;;;;;1896360;75;21105;-75
2022/01/03 12:30:36;;;;;;;7.22;1.60;;;12.60;99.90;;;;;;1901072;75;21515;-75
2022/01/03 12:33:02;;;;;;;3.62;1.45;;;12.60;99.90;;;;;;1900788;75;21509;-75
2022/01/03 12:35:28;;;;;;;5.85;2.30;;;12.70;99.90;;;;;;1902521;75;21065;-76
2022/01/03 12:37:55;;;;;;;8.35;1.82;;;12.70;99.90;;;;;;1900593;75;21173;-76
2022/01/03 12:40:22;;;;;;;4.87;2.42;;;12.70;99.90;;;;;;1899209;75;21093;-76
2022/01/03 12:42:50;;;;;;;5.70;1.70;;;12.70;99.90;;;;;;1903620;75;21113;-77
2022/01/03 12:45:16;;;;;;;6.22;1.50;;;12.70;99.90;;;;;;1903531;74;21154;-77
2022/01/03 12:47:42;;;;;;;4.05;1.57;;;12.60;99.90;;;;;;1901397;75;21202;-77
2022/01/03 12:50:08;;;;;;;5.58;1.60;;;12.70;99.90;;;;;;1896007;75;21165;-78
2022/01/03 12:52:34;;;;;;;2.60;1.47;;;12.70;99.90;;;;;;1900500;75;21199;-78
2022/01/03 12:55:00;;;;;;;2.95;1.20;;;12.60;99.90;;;;;;1901617;75;21429;-79
2022/01/03 12:57:26;;;;;;;4.00;1.42;;;12.60;99.90;;;;;;1902947;74;21523;-76
2022/01/03 12:59:52;;;;;;;5.22;1.30;;;12.60;99.90;;;;;;1902159;75;21484;-75